sensor_id;sensor_type;location;lat;lon;timestamp;pressure;altitude;pressure_sealevel;temperature;humidity
53916;BME280;39827;49.652;18.770;2022-12-29T00:01:19;96589.78;;;2.29;72.42
53916;BME280;39827;49.652;18.770;2022-12-29T00:03:45;96582.53;;;2.31;72.53
53916;BME280;39827;49.652;18.770;2022-12-29T00:06:10;96586.78;;;2.25;72.60
53916;BME280;39827;49.652;18.770;2022-12-29T00:08:35;96585.13;;;2.44;71.75
53916;BME280;39827;49.652;18.770;2022-12-29T00:13:35;96601.63;;;2.38;72.15
53916;BME280;39827;49.652;18.770;2022-12-29T00:16:19;96597.63;;;2.36;72.79
53916;BME280;39827;49.652;18.770;2022-12-29T00:18:44;96599.63;;;2.27;72.70
53916;BME280;39827;49.652;18.770;2022-12-29T00:21:16;96596.22;;;2.19;72.85
53916;BME280;39827;49.652;18.770;2022-12-29T00:24:00;96604.84;;;2.06;73.91
53916;BME280;39827;49.652;18.770;2022-12-29T00:26:45;96591.38;;;2.16;72.88
53916;BME280;39827;49.652;18.770;2022-12-29T00:29:28;96581.53;;;2.05;73.86
53916;BME280;39827;49.652;18.770;2022-12-29T00:32:12;96576.72;;;2.08;74.35
53916;BME280;39827;49.652;18.770;2022-12-29T00:34:56;96574.69;;;1.97;74.17
53916;BME280;39827;49.652;18.770;2022-12-29T00:37:35;96555.81;;;2.08;73.85
53916;BME280;39827;49.652;18.770;2022-12-29T00:40:19;96550.81;;;2.00;74.26
53916;BME280;39827;49.652;18.770;2022-12-29T00:43:03;96535.91;;;2.01;74.50
53916;BME280;39827;49.652;18.770;2022-12-29T00:45:47;96542.97;;;2.07;74.37
53916;BME280;39827;49.652;18.770;2022-12-29T00:48:12;96535.13;;;2.14;73.67
53916;BME280;39827;49.652;18.770;2022-12-29T00:50:37;96529.09;;;2.06;74.01
53916;BME280;39827;49.652;18.770;2022-12-29T00:53:02;96525.50;;;2.21;73.48
53916;BME280;39827;49.652;18.770;2022-12-29T00:55:28;96528.09;;;2.14;74.14
53916;BME280;39827;49.652;18.770;2022-12-29T00:57:53;96530.69;;;2.28;73.95
53916;BME280;39827;49.652;18.770;2022-12-29T01:00:18;96528.69;;;2.16;74.22
53916;BME280;39827;49.652;18.770;2022-12-29T01:02:44;96533.31;;;2.21;74.49
53916;BME280;39827;49.652;18.770;2022-12-29T01:05:09;96554.63;;;2.18;74.53
53916;BME280;39827;49.652;18.770;2022-12-29T01:07:34;96561.63;;;2.17;73.90
53916;BME280;39827;49.652;18.770;2022-12-29T01:09:59;96561.84;;;2.16;74.16
53916;BME280;39827;49.652;18.770;2022-12-29T01:12:37;96559.03;;;2.17;74.21
53916;BME280;39827;49.652;18.770;2022-12-29T01:15:06;96564.06;;;2.19;74.12
53916;BME280;39827;49.652;18.770;2022-12-29T01:17:31;96562.25;;;2.33;73.81
53916;BME280;39827;49.652;18.770;2022-12-29T01:19:57;96556.81;;;2.41;73.43
53916;BME280;39827;49.652;18.770;2022-12-29T01:22:22;96561.84;;;2.43;73.66
53916;BME280;39827;49.652;18.770;2022-12-29T01:24:47;96564.84;;;2.40;73.57
53916;BME280;39827;49.652;18.770;2022-12-29T01:27:14;96566.25;;;2.42;73.92
53916;BME280;39827;49.652;18.770;2022-12-29T01:29:39;96554.41;;;2.40;73.57
53916;BME280;39827;49.652;18.770;2022-12-29T01:32:04;96551.97;;;2.45;73.80
53916;BME280;39827;49.652;18.770;2022-12-29T01:34:29;96560.81;;;2.51;73.42
53916;BME280;39827;49.652;18.770;2022-12-29T01:36:55;96554.56;;;2.58;73.86
53916;BME280;39827;49.652;18.770;2022-12-29T01:39:20;96561.19;;;2.61;73.76
53916;BME280;39827;49.652;18.770;2022-12-29T01:41:45;96575.28;;;2.46;74.11
53916;BME280;39827;49.652;18.770;2022-12-29T01:46:54;96547.31;;;2.67;73.12
53916;BME280;39827;49.652;18.770;2022-12-29T01:49:21;96542.88;;;2.61;73.13
53916;BME280;39827;49.652;18.770;2022-12-29T01:51:50;96553.94;;;2.77;73.16
53916;BME280;39827;49.652;18.770;2022-12-29T01:54:23;96535.22;;;2.80;73.06
53916;BME280;39827;49.652;18.770;2022-12-29T01:56:51;96533.81;;;2.84;72.86
53916;BME280;39827;49.652;18.770;2022-12-29T01:59:18;96540.84;;;2.83;73.01
53916;BME280;39827;49.652;18.770;2022-12-29T02:01:45;96531.38;;;2.82;73.62
53916;BME280;39827;49.652;18.770;2022-12-29T02:04:10;96526.97;;;2.76;73.40
53916;BME280;39827;49.652;18.770;2022-12-29T02:06:45;96515.69;;;2.82;73.35
53916;BME280;39827;49.652;18.770;2022-12-29T02:09:12;96517.06;;;2.92;72.69
53916;BME280;39827;49.652;18.770;2022-12-29T02:11:38;96497.97;;;2.84;72.94
53916;BME280;39827;49.652;18.770;2022-12-29T02:14:10;96506.00;;;2.90;72.82
53916;BME280;39827;49.652;18.770;2022-12-29T02:16:39;96498.59;;;2.86;72.83
53916;BME280;39827;49.652;18.770;2022-12-29T02:22:00;96495.13;;;2.93;73.50
53916;BME280;39827;49.652;18.770;2022-12-29T02:29:40;96470.78;;;2.92;73.54
53916;BME280;39827;49.652;18.770;2022-12-29T02:39:51;96476.97;;;3.05;73.59
53916;BME280;39827;49.652;18.770;2022-12-29T02:47:14;96450.19;;;3.09;73.37
53916;BME280;39827;49.652;18.770;2022-12-29T02:52:07;96470.78;;;2.99;74.25
53916;BME280;39827;49.652;18.770;2022-12-29T02:54:35;96494.03;;;3.07;74.00
53916;BME280;39827;49.652;18.770;2022-12-29T02:59:35;96473.81;;;2.96;74.64
53916;BME280;39827;49.652;18.770;2022-12-29T03:02:06;96487.00;;;3.08;74.79
53916;BME280;39827;49.652;18.770;2022-12-29T03:07:12;96498.94;;;2.97;75.13
53916;BME280;39827;49.652;18.770;2022-12-29T03:12:11;96509.72;;;3.14;74.63
53916;BME280;39827;49.652;18.770;2022-12-29T03:14:44;96496.69;;;3.00;75.76
53916;BME280;39827;49.652;18.770;2022-12-29T03:19:59;96486.25;;;2.94;75.77
53916;BME280;39827;49.652;18.770;2022-12-29T03:22:26;96483.84;;;2.92;75.93
53916;BME280;39827;49.652;18.770;2022-12-29T03:24:59;96463.34;;;2.96;76.14
53916;BME280;39827;49.652;18.770;2022-12-29T03:27:28;96472.16;;;3.02;76.15
53916;BME280;39827;49.652;18.770;2022-12-29T03:29:57;96462.06;;;3.05;75.43
53916;BME280;39827;49.652;18.770;2022-12-29T03:32:26;96466.03;;;3.15;75.98
53916;BME280;39827;49.652;18.770;2022-12-29T03:34:52;96460.06;;;3.00;76.26
53916;BME280;39827;49.652;18.770;2022-12-29T03:37:18;96452.63;;;3.04;76.18
53916;BME280;39827;49.652;18.770;2022-12-29T03:39:45;96461.88;;;3.07;76.04
53916;BME280;39827;49.652;18.770;2022-12-29T03:42:12;96487.03;;;3.01;76.39
53916;BME280;39827;49.652;18.770;2022-12-29T03:44:40;96459.69;;;2.97;76.52
53916;BME280;39827;49.652;18.770;2022-12-29T03:47:06;96467.38;;;2.92;76.62
53916;BME280;39827;49.652;18.770;2022-12-29T03:49:31;96465.94;;;2.96;76.07
53916;BME280;39827;49.652;18.770;2022-12-29T03:51:57;96468.94;;;2.99;76.22
53916;BME280;39827;49.652;18.770;2022-12-29T03:54:23;96465.78;;;2.91;76.79
53916;BME280;39827;49.652;18.770;2022-12-29T03:56:48;96477.81;;;2.98;76.21
53916;BME280;39827;49.652;18.770;2022-12-29T03:59:13;96475.00;;;3.00;76.19
53916;BME280;39827;49.652;18.770;2022-12-29T04:01:38;96498.13;;;2.96;76.39
53916;BME280;39827;49.652;18.770;2022-12-29T04:04:04;96489.91;;;2.93;76.67
53916;BME280;39827;49.652;18.770;2022-12-29T04:06:29;96492.13;;;2.89;76.60
53916;BME280;39827;49.652;18.770;2022-12-29T04:08:54;96504.41;;;2.89;77.06
53916;BME280;39827;49.652;18.770;2022-12-29T04:11:20;96489.91;;;2.93;76.88
53916;BME280;39827;49.652;18.770;2022-12-29T04:13:45;96490.13;;;2.84;76.96
53916;BME280;39827;49.652;18.770;2022-12-29T04:16:10;96495.16;;;2.86;77.74
53916;BME280;39827;49.652;18.770;2022-12-29T04:18:36;96496.63;;;2.68;78.28
53916;BME280;39827;49.652;18.770;2022-12-29T04:21:01;96483.94;;;2.72;78.40
53916;BME280;39827;49.652;18.770;2022-12-29T04:23:27;96492.97;;;2.76;78.45
53916;BME280;39827;49.652;18.770;2022-12-29T04:25:53;96494.00;;;2.68;78.76
53916;BME280;39827;49.652;18.770;2022-12-29T04:28:18;96481.75;;;2.69;78.94
53916;BME280;39827;49.652;18.770;2022-12-29T04:30:44;96483.97;;;2.65;79.06
53916;BME280;39827;49.652;18.770;2022-12-29T04:33:09;96489.44;;;2.50;79.86
53916;BME280;39827;49.652;18.770;2022-12-29T04:35:34;96479.84;;;2.37;80.43
53916;BME280;39827;49.652;18.770;2022-12-29T04:38:00;96477.03;;;2.39;80.32
53916;BME280;39827;49.652;18.770;2022-12-29T04:40:25;96466.97;;;2.36;80.39
53916;BME280;39827;49.652;18.770;2022-12-29T04:42:50;96469.59;;;2.36;80.39
53916;BME280;39827;49.652;18.770;2022-12-29T04:45:16;96457.13;;;2.24;80.93
53916;BME280;39827;49.652;18.770;2022-12-29T04:47:41;96465.19;;;2.22;81.36
53916;BME280;39827;49.652;18.770;2022-12-29T04:50:07;96463.56;;;2.21;81.28
53916;BME280;39827;49.652;18.770;2022-12-29T04:52:32;96458.34;;;2.21;81.19
53916;BME280;39827;49.652;18.770;2022-12-29T04:54:57;96462.38;;;2.24;81.55
53916;BME280;39827;49.652;18.770;2022-12-29T04:57:23;96482.44;;;2.44;81.07
53916;BME280;39827;49.652;18.770;2022-12-29T04:59:48;96473.56;;;2.52;80.87
53916;BME280;39827;49.652;18.770;2022-12-29T05:02:13;96479.19;;;2.48;81.11
53916;BME280;39827;49.652;18.770;2022-12-29T05:04:39;96475.19;;;2.46;81.50
53916;BME280;39827;49.652;18.770;2022-12-29T05:07:04;96486.78;;;2.64;81.04
53916;BME280;39827;49.652;18.770;2022-12-29T05:09:29;96479.19;;;2.48;81.50
53916;BME280;39827;49.652;18.770;2022-12-29T05:11:54;96474.16;;;2.60;81.46
53916;BME280;39827;49.652;18.770;2022-12-29T05:14:20;96481.97;;;2.60;81.61
53916;BME280;39827;49.652;18.770;2022-12-29T05:16:45;96481.53;;;2.70;81.13
53916;BME280;39827;49.652;18.770;2022-12-29T05:19:10;96473.94;;;2.62;81.57
53916;BME280;39827;49.652;18.770;2022-12-29T05:21:36;96461.03;;;2.74;81.29
53916;BME280;39827;49.652;18.770;2022-12-29T05:24:01;96459.25;;;2.61;81.94
53916;BME280;39827;49.652;18.770;2022-12-29T05:26:26;96471.94;;;2.57;82.87
53916;BME280;39827;49.652;18.770;2022-12-29T05:28:51;96472.34;;;2.54;82.38
53916;BME280;39827;49.652;18.770;2022-12-29T05:31:17;96465.47;;;2.67;81.97
53916;BME280;39827;49.652;18.770;2022-12-29T05:33:42;96468.91;;;2.60;82.15
53916;BME280;39827;49.652;18.770;2022-12-29T05:36:08;96459.66;;;2.65;82.23
53916;BME280;39827;49.652;18.770;2022-12-29T05:38:33;96456.22;;;2.64;82.50
53916;BME280;39827;49.652;18.770;2022-12-29T05:40:59;96463.06;;;2.65;82.89
53916;BME280;39827;49.652;18.770;2022-12-29T05:43:24;96460.25;;;2.60;82.77
53916;BME280;39827;49.652;18.770;2022-12-29T05:45:49;96452.63;;;2.58;83.33
53916;BME280;39827;49.652;18.770;2022-12-29T05:48:15;96451.81;;;2.65;82.99
53916;BME280;39827;49.652;18.770;2022-12-29T05:50:40;96466.44;;;2.72;82.86
53916;BME280;39827;49.652;18.770;2022-12-29T05:53:05;96446.91;;;2.82;82.11
53916;BME280;39827;49.652;18.770;2022-12-29T05:55:30;96461.03;;;2.67;82.68
53916;BME280;39827;49.652;18.770;2022-12-29T05:57:56;96447.34;;;2.72;82.11
53916;BME280;39827;49.652;18.770;2022-12-29T06:00:21;96449.94;;;2.72;82.03
53916;BME280;39827;49.652;18.770;2022-12-29T06:02:46;96445.94;;;2.69;82.54
53916;BME280;39827;49.652;18.770;2022-12-29T06:05:12;96464.22;;;2.76;82.20
53916;BME280;39827;49.652;18.770;2022-12-29T06:07:37;96451.75;;;2.78;82.29
53916;BME280;39827;49.652;18.770;2022-12-29T06:10:03;96467.25;;;2.73;82.26
53916;BME280;39827;49.652;18.770;2022-12-29T06:12:28;96456.00;;;2.72;82.31
53916;BME280;39827;49.652;18.770;2022-12-29T06:14:54;96455.19;;;2.72;82.47
53916;BME280;39827;49.652;18.770;2022-12-29T06:17:19;96453.75;;;2.76;82.17
53916;BME280;39827;49.652;18.770;2022-12-29T06:19:44;96445.13;;;2.76;81.88
53916;BME280;39827;49.652;18.770;2022-12-29T06:22:09;96438.47;;;2.80;81.75
53916;BME280;39827;49.652;18.770;2022-12-29T06:24:37;96453.16;;;2.81;81.85
53916;BME280;39827;49.652;18.770;2022-12-29T06:27:02;96445.47;;;2.86;81.76
53916;BME280;39827;49.652;18.770;2022-12-29T06:29:27;96454.13;;;2.86;82.26
53916;BME280;39827;49.652;18.770;2022-12-29T06:31:53;96451.53;;;2.86;81.89
53916;BME280;39827;49.652;18.770;2022-12-29T06:34:21;96456.72;;;2.93;82.12
53916;BME280;39827;49.652;18.770;2022-12-29T06:36:46;96470.78;;;2.92;82.10
53916;BME280;39827;49.652;18.770;2022-12-29T06:39:11;96456.50;;;2.95;82.33
53916;BME280;39827;49.652;18.770;2022-12-29T06:41:37;96467.34;;;2.98;82.41
53916;BME280;39827;49.652;18.770;2022-12-29T06:44:02;96467.97;;;2.94;82.73
53916;BME280;39827;49.652;18.770;2022-12-29T06:46:28;96453.00;;;3.08;82.01
53916;BME280;39827;49.652;18.770;2022-12-29T06:48:53;96458.84;;;3.10;82.04
53916;BME280;39827;49.652;18.770;2022-12-29T06:51:18;96455.78;;;3.13;82.25
53916;BME280;39827;49.652;18.770;2022-12-29T06:53:44;96451.19;;;3.08;82.41
53916;BME280;39827;49.652;18.770;2022-12-29T06:56:09;96461.25;;;3.05;83.00
53916;BME280;39827;49.652;18.770;2022-12-29T06:58:34;96462.03;;;3.12;82.45
53916;BME280;39827;49.652;18.770;2022-12-29T07:00:59;96464.88;;;3.10;82.63
53916;BME280;39827;49.652;18.770;2022-12-29T07:03:25;96456.44;;;3.08;83.07
53916;BME280;39827;49.652;18.770;2022-12-29T07:05:50;96455.91;;;3.32;81.85
53916;BME280;39827;49.652;18.770;2022-12-29T07:08:15;96459.13;;;3.27;82.45
53916;BME280;39827;49.652;18.770;2022-12-29T07:10:40;96471.84;;;3.23;82.61
53916;BME280;39827;49.652;18.770;2022-12-29T07:13:06;96453.91;;;3.27;82.66
53916;BME280;39827;49.652;18.770;2022-12-29T07:15:32;96443.06;;;3.23;82.92
53916;BME280;39827;49.652;18.770;2022-12-29T07:17:58;96439.06;;;3.14;83.31
53916;BME280;39827;49.652;18.770;2022-12-29T07:20:23;96440.00;;;3.26;82.82
53916;BME280;39827;49.652;18.770;2022-12-29T07:22:48;96427.56;;;3.22;83.64
53916;BME280;39827;49.652;18.770;2022-12-29T07:25:14;96455.16;;;3.18;83.86
53916;BME280;39827;49.652;18.770;2022-12-29T07:27:39;96424.56;;;3.18;84.42
53916;BME280;39827;49.652;18.770;2022-12-29T07:30:04;96446.09;;;3.20;84.43
53916;BME280;39827;49.652;18.770;2022-12-29T07:32:33;96430.19;;;3.22;84.76
53916;BME280;39827;49.652;18.770;2022-12-29T07:34:58;96438.38;;;3.32;84.26
53916;BME280;39827;49.652;18.770;2022-12-29T07:37:24;96442.53;;;3.40;84.17
53916;BME280;39827;49.652;18.770;2022-12-29T07:39:49;96442.56;;;3.33;84.79
53916;BME280;39827;49.652;18.770;2022-12-29T07:42:14;96443.19;;;3.35;84.64
53916;BME280;39827;49.652;18.770;2022-12-29T07:44:39;96453.84;;;3.34;84.82
53916;BME280;39827;49.652;18.770;2022-12-29T07:47:05;96455.09;;;3.31;85.57
53916;BME280;39827;49.652;18.770;2022-12-29T07:49:30;96451.44;;;3.32;85.58
53916;BME280;39827;49.652;18.770;2022-12-29T07:51:55;96456.59;;;3.46;85.03
53916;BME280;39827;49.652;18.770;2022-12-29T07:54:21;96487.41;;;3.44;85.84
53916;BME280;39827;49.652;18.770;2022-12-29T07:56:47;96475.34;;;3.43;86.06
53916;BME280;39827;49.652;18.770;2022-12-29T07:59:12;96476.56;;;3.40;86.15
53916;BME280;39827;49.652;18.770;2022-12-29T08:01:38;96471.97;;;3.35;86.74
53916;BME280;39827;49.652;18.770;2022-12-29T08:04:03;96458.88;;;3.35;87.53
53916;BME280;39827;49.652;18.770;2022-12-29T08:06:29;96471.72;;;3.44;87.16
53916;BME280;39827;49.652;18.770;2022-12-29T08:08:55;96474.28;;;3.50;86.92
53916;BME280;39827;49.652;18.770;2022-12-29T08:11:21;96478.38;;;3.39;88.33
53916;BME280;39827;49.652;18.770;2022-12-29T08:13:46;96461.25;;;3.44;88.08
53916;BME280;39827;49.652;18.770;2022-12-29T08:16:12;96455.81;;;3.45;87.92
53916;BME280;39827;49.652;18.770;2022-12-29T08:18:37;96433.19;;;3.51;88.04
53916;BME280;39827;49.652;18.770;2022-12-29T08:21:03;96442.78;;;3.38;88.76
53916;BME280;39827;49.652;18.770;2022-12-29T08:23:29;96447.34;;;3.43;88.88
53916;BME280;39827;49.652;18.770;2022-12-29T08:26:02;96445.16;;;3.40;88.79
53916;BME280;39827;49.652;18.770;2022-12-29T08:28:27;96436.31;;;3.41;89.44
53916;BME280;39827;49.652;18.770;2022-12-29T08:30:53;96440.84;;;3.52;89.09
53916;BME280;39827;49.652;18.770;2022-12-29T08:33:19;96454.78;;;3.72;88.25
53916;BME280;39827;49.652;18.770;2022-12-29T08:35:44;96448.78;;;3.71;87.71
53916;BME280;39827;49.652;18.770;2022-12-29T08:38:10;96436.41;;;3.53;88.56
53916;BME280;39827;49.652;18.770;2022-12-29T08:40:36;96439.47;;;3.75;87.88
53916;BME280;39827;49.652;18.770;2022-12-29T08:43:01;96446.34;;;3.70;87.82
53916;BME280;39827;49.652;18.770;2022-12-29T08:45:27;96458.75;;;3.81;87.60
53916;BME280;39827;49.652;18.770;2022-12-29T08:47:52;96459.50;;;3.88;87.41
53916;BME280;39827;49.652;18.770;2022-12-29T08:50:17;96457.34;;;3.78;88.18
53916;BME280;39827;49.652;18.770;2022-12-29T08:52:42;96469.00;;;3.83;87.58
53916;BME280;39827;49.652;18.770;2022-12-29T08:55:08;96463.66;;;3.71;88.87
53916;BME280;39827;49.652;18.770;2022-12-29T08:57:33;96464.38;;;3.85;88.66
53916;BME280;39827;49.652;18.770;2022-12-29T08:59:59;96489.16;;;3.82;89.14
53916;BME280;39827;49.652;18.770;2022-12-29T09:02:24;96459.78;;;3.99;88.41
53916;BME280;39827;49.652;18.770;2022-12-29T09:04:49;96478.41;;;3.90;89.39
53916;BME280;39827;49.652;18.770;2022-12-29T09:07:14;96468.25;;;4.01;88.71
53916;BME280;39827;49.652;18.770;2022-12-29T09:09:40;96455.16;;;4.01;88.95
53916;BME280;39827;49.652;18.770;2022-12-29T09:12:05;96459.31;;;4.09;88.56
53916;BME280;39827;49.652;18.770;2022-12-29T09:14:30;96459.09;;;4.29;88.00
53916;BME280;39827;49.652;18.770;2022-12-29T09:16:55;96472.31;;;4.60;85.99
53916;BME280;39827;49.652;18.770;2022-12-29T09:19:39;96450.44;;;4.66;85.54
53916;BME280;39827;49.652;18.770;2022-12-29T09:22:04;96453.13;;;4.59;86.83
53916;BME280;39827;49.652;18.770;2022-12-29T09:24:30;96434.31;;;4.81;85.61
53916;BME280;39827;49.652;18.770;2022-12-29T09:26:55;96417.56;;;5.13;83.44
53916;BME280;39827;49.652;18.770;2022-12-29T09:29:21;96403.03;;;5.53;81.13
53916;BME280;39827;49.652;18.770;2022-12-29T09:31:46;96400.34;;;4.86;83.40
53916;BME280;39827;49.652;18.770;2022-12-29T09:34:12;96439.53;;;4.69;84.48
53916;BME280;39827;49.652;18.770;2022-12-29T09:36:37;96399.41;;;4.50;85.37
53916;BME280;39827;49.652;18.770;2022-12-29T09:39:02;96408.56;;;4.59;85.47
53916;BME280;39827;49.652;18.770;2022-12-29T09:41:34;96415.66;;;4.59;84.84
53916;BME280;39827;49.652;18.770;2022-12-29T09:46:40;96406.47;;;4.49;85.65
53916;BME280;39827;49.652;18.770;2022-12-29T09:51:35;96409.03;;;4.37;86.08
53916;BME280;39827;49.652;18.770;2022-12-29T09:54:22;96414.03;;;4.39;86.19
53916;BME280;39827;49.652;18.770;2022-12-29T09:56:48;96409.03;;;4.37;86.76
53916;BME280;39827;49.652;18.770;2022-12-29T09:59:15;96402.03;;;4.31;87.12
53916;BME280;39827;49.652;18.770;2022-12-29T10:01:58;96400.66;;;4.28;87.37
53916;BME280;39827;49.652;18.770;2022-12-29T10:04:27;96396.19;;;4.29;87.36
53916;BME280;39827;49.652;18.770;2022-12-29T10:07:03;96399.50;;;4.24;87.92
53916;BME280;39827;49.652;18.770;2022-12-29T10:09:37;96392.50;;;4.37;87.10
53916;BME280;39827;49.652;18.770;2022-12-29T10:24:56;96417.69;;;4.56;85.93
53916;BME280;39827;49.652;18.770;2022-12-29T10:27:22;96380.28;;;5.22;83.32
53916;BME280;39827;49.652;18.770;2022-12-29T10:29:53;96379.28;;;5.59;80.62
53916;BME280;39827;49.652;18.770;2022-12-29T10:32:36;96389.56;;;6.91;73.21
53916;BME280;39827;49.652;18.770;2022-12-29T10:35:06;96402.78;;;9.33;63.51
53916;BME280;39827;49.652;18.770;2022-12-29T10:40:11;96413.28;;;11.47;54.44
53916;BME280;39827;49.652;18.770;2022-12-29T10:42:40;96403.75;;;11.72;52.93
53916;BME280;39827;49.652;18.770;2022-12-29T10:45:10;96401.63;;;11.54;52.89
53916;BME280;39827;49.652;18.770;2022-12-29T10:47:38;96401.91;;;11.26;53.52
53916;BME280;39827;49.652;18.770;2022-12-29T10:50:07;96402.16;;;11.30;53.26
53916;BME280;39827;49.652;18.770;2022-12-29T10:52:32;96405.03;;;10.97;54.35
53916;BME280;39827;49.652;18.770;2022-12-29T10:57:45;96394.63;;;10.75;54.73
53916;BME280;39827;49.652;18.770;2022-12-29T11:00:14;96404.47;;;10.90;53.95
53916;BME280;39827;49.652;18.770;2022-12-29T11:07:37;96403.78;;;9.60;58.47
53916;BME280;39827;49.652;18.770;2022-12-29T11:10:17;96409.13;;;10.03;58.41
53916;BME280;39827;49.652;18.770;2022-12-29T11:12:54;96384.91;;;9.13;60.05
53916;BME280;39827;49.652;18.770;2022-12-29T11:15:20;96371.06;;;10.14;57.95
53916;BME280;39827;49.652;18.770;2022-12-29T11:17:46;96381.00;;;9.54;58.69
53916;BME280;39827;49.652;18.770;2022-12-29T11:22:56;96391.06;;;9.95;56.60
53916;BME280;39827;49.652;18.770;2022-12-29T11:25:21;96388.53;;;9.72;58.24
53916;BME280;39827;49.652;18.770;2022-12-29T11:30:25;96379.00;;;9.66;58.17
53916;BME280;39827;49.652;18.770;2022-12-29T11:32:51;96379.00;;;10.14;57.71
53916;BME280;39827;49.652;18.770;2022-12-29T11:38:02;96373.69;;;10.68;55.67
53916;BME280;39827;49.652;18.770;2022-12-29T11:40:27;96390.94;;;9.74;57.90
53916;BME280;39827;49.652;18.770;2022-12-29T11:42:54;96384.56;;;9.04;59.83
53916;BME280;39827;49.652;18.770;2022-12-29T11:48:12;96381.50;;;10.37;56.37
53916;BME280;39827;49.652;18.770;2022-12-29T11:50:35;96371.09;;;9.71;57.91
53916;BME280;39827;49.652;18.770;2022-12-29T11:53:24;96374.00;;;10.82;54.76
53916;BME280;39827;49.652;18.770;2022-12-29T11:55:51;96388.00;;;10.77;54.52
53916;BME280;39827;49.652;18.770;2022-12-29T11:58:17;96369.31;;;10.36;55.21
53916;BME280;39827;49.652;18.770;2022-12-29T12:00:43;96373.97;;;10.72;54.24
53916;BME280;39827;49.652;18.770;2022-12-29T12:03:19;96358.56;;;10.58;54.20
53916;BME280;39827;49.652;18.770;2022-12-29T12:05:49;96380.34;;;9.69;56.46
53916;BME280;39827;49.652;18.770;2022-12-29T12:15:40;96370.72;;;9.57;57.91
53916;BME280;39827;49.652;18.770;2022-12-29T12:25:34;96364.66;;;10.00;55.95
53916;BME280;39827;49.652;18.770;2022-12-29T12:28:05;96369.25;;;10.94;53.15
53916;BME280;39827;49.652;18.770;2022-12-29T12:30:36;96375.56;;;10.67;53.49
53916;BME280;39827;49.652;18.770;2022-12-29T12:33:13;96380.41;;;10.27;53.91
53916;BME280;39827;49.652;18.770;2022-12-29T12:35:47;96368.19;;;8.30;59.82
53916;BME280;39827;49.652;18.770;2022-12-29T12:50:55;96349.34;;;5.84;74.29
53916;BME280;39827;49.652;18.770;2022-12-29T12:58:33;96372.22;;;5.84;75.13
53916;BME280;39827;49.652;18.770;2022-12-29T13:01:11;96356.56;;;5.89;74.88
53916;BME280;39827;49.652;18.770;2022-12-29T13:16:59;96352.31;;;5.64;76.72
53916;BME280;39827;49.652;18.770;2022-12-29T13:27:27;96358.84;;;5.61;77.14
53916;BME280;39827;49.652;18.770;2022-12-29T13:30:58;96372.19;;;5.48;76.87
53916;BME280;39827;49.652;18.770;2022-12-29T13:33:00;96353.69;;;5.43;77.86
53916;BME280;39827;49.652;18.770;2022-12-29T13:37:57;96348.56;;;5.48;77.44
53916;BME280;39827;49.652;18.770;2022-12-29T13:40:24;96361.03;;;5.53;77.00
53916;BME280;39827;49.652;18.770;2022-12-29T13:42:50;96370.16;;;5.50;77.19
53916;BME280;39827;49.652;18.770;2022-12-29T13:45:18;96357.38;;;5.54;77.24
53916;BME280;39827;49.652;18.770;2022-12-29T13:47:46;96372.09;;;5.55;76.88
53916;BME280;39827;49.652;18.770;2022-12-29T13:50:21;96380.66;;;5.50;77.14
53916;BME280;39827;49.652;18.770;2022-12-29T14:00:53;96322.53;;;5.58;77.00
53916;BME280;39827;49.652;18.770;2022-12-29T14:06:16;96323.22;;;5.54;77.51
53916;BME280;39827;49.652;18.770;2022-12-29T14:08:44;96329.16;;;5.37;78.54
53916;BME280;39827;49.652;18.770;2022-12-29T14:11:10;96325.38;;;5.33;78.47
53916;BME280;39827;49.652;18.770;2022-12-29T14:13:39;96321.84;;;5.39;78.66
53916;BME280;39827;49.652;18.770;2022-12-29T14:16:05;96336.69;;;5.33;78.59
53916;BME280;39827;49.652;18.770;2022-12-29T14:18:34;96353.47;;;5.32;78.77
53916;BME280;39827;49.652;18.770;2022-12-29T14:21:11;96356.09;;;5.32;78.97
53916;BME280;39827;49.652;18.770;2022-12-29T14:23:43;96327.44;;;5.31;78.98
53916;BME280;39827;49.652;18.770;2022-12-29T14:28:38;96340.19;;;5.15;79.90
53916;BME280;39827;49.652;18.770;2022-12-29T14:31:05;96343.03;;;5.14;80.06
53916;BME280;39827;49.652;18.770;2022-12-29T14:36:40;96346.31;;;4.97;80.78
53916;BME280;39827;49.652;18.770;2022-12-29T14:39:26;96336.28;;;4.94;81.29
53916;BME280;39827;49.652;18.770;2022-12-29T14:44:28;96323.72;;;4.96;81.59
53916;BME280;39827;49.652;18.770;2022-12-29T14:49:20;96329.78;;;4.85;81.97
53916;BME280;39827;49.652;18.770;2022-12-29T14:51:46;96315.03;;;4.83;82.06
53916;BME280;39827;49.652;18.770;2022-12-29T14:56:59;96343.19;;;4.76;82.38
53916;BME280;39827;49.652;18.770;2022-12-29T14:59:25;96347.28;;;4.72;82.36
53916;BME280;39827;49.652;18.770;2022-12-29T15:01:52;96338.72;;;4.77;82.97
53916;BME280;39827;49.652;18.770;2022-12-29T15:04:20;96334.63;;;4.69;83.41
53916;BME280;39827;49.652;18.770;2022-12-29T15:06:45;96322.75;;;4.66;83.09
53916;BME280;39827;49.652;18.770;2022-12-29T15:09:17;96325.75;;;4.82;82.88
53916;BME280;39827;49.652;18.770;2022-12-29T15:11:50;96314.06;;;4.66;83.11
53916;BME280;39827;49.652;18.770;2022-12-29T15:14:27;96327.09;;;4.73;82.88
53916;BME280;39827;49.652;18.770;2022-12-29T15:16:53;96344.66;;;4.72;82.80
53916;BME280;39827;49.652;18.770;2022-12-29T15:19:22;96333.97;;;4.86;82.37
53916;BME280;39827;49.652;18.770;2022-12-29T15:21:48;96346.28;;;4.85;82.52
53916;BME280;39827;49.652;18.770;2022-12-29T15:24:14;96335.00;;;4.85;82.41
53916;BME280;39827;49.652;18.770;2022-12-29T15:26:40;96338.41;;;4.85;82.65
53916;BME280;39827;49.652;18.770;2022-12-29T15:29:26;96336.22;;;4.82;82.71
53916;BME280;39827;49.652;18.770;2022-12-29T15:31:51;96327.94;;;4.85;82.19
53916;BME280;39827;49.652;18.770;2022-12-29T15:34:16;96338.28;;;4.80;82.96
53916;BME280;39827;49.652;18.770;2022-12-29T15:36:46;96344.44;;;4.74;83.21
53916;BME280;39827;49.652;18.770;2022-12-29T15:39:18;96358.13;;;4.76;83.28
53916;BME280;39827;49.652;18.770;2022-12-29T15:41:45;96351.38;;;4.68;83.50